Briefing drone pour Pineuilh

Rechercher une autre localisation

Conditions de vol :


Nous sommes le : Mercredi 14 avril 2021
Il est 22:26 UTC (00:26 LT)

Lever de soleil : 04:49 UTC (06:49 LT)
Coucher de soleil : 19:09 UTC (21:09 LT)

Météo

L'essentiel des conditions de vol

VIGILANCE MÉTÉO FRANCE - Gironde (33)
Pas de vigilances particulieres
CARTE TEMSI
CARTES DES FRONTS
METAR de LFBE
LFBE 132200Z AUTO 06005KT CAVOK 07/M00 Q1025

Date d'émission: 13/04/2021
Heure d'émission: 22:00 UTC
Vent: 060° pour 5 KT (9 km/h)
Visibilité horizontale: > 10 km
Plafond : Plafond et visibilité OK (CAVOK)
Température: 7 °C
Point de rosée: 0 °C
Humidité: 61%
Pression (QNH): 1025 hPa
TAF de LFBE
LFBE 132010Z 1320/1412 CNL

Conditions prévues :

Heure d'émission : Bulletin éffectué le 13 à 20:00 UTC
Prévision : Valide du 13 a 20:00 UTC au 14 a 12:00 UTC
Nuages : à 0ft (0 m)
WEBCAM POUR PINEUILH

Réglementation

Voler en sécurité

CARTES AERONAUTIQUE 1/500.000
CARTES VAC (LFBE)
SUP AIP




Chargement des AIP...
NOTAM (PINEUILH + Terrain à proximité / FIR )




Chargement des NOTAMS...
CONTACT PREFECTURE 33


Avertissement : Les données mises à disposition sont indicatives. Oxygène Drone ne pourra être tenu responsable de dégâts causés aux biens et aux personnes.